Terminal Aerodrome Forecast
Issued by NWS Sioux Falls, SD

Current Version | Previous Version | Text Only | Print | Product List | Glossary On
Versions: 1 2 3 4 5 6 7 8 9 10 11 12
000
FTUS43 KFSD 251143
TAFHON
TAF
KHON 251143Z 2512/2612 16009KT P6SM SCT250 WS020/21040KT
     FM251400 19008KT P6SM FEW250
     FM252000 02005KT P6SM SCT250
     FM252300 06010KT 5SM TSRA BR BKN060CB
     FM260200 09010KT 3SM TSRA BR OVC035CB
     FM260600 07006KT 6SM -SHRA VCTS OVC035CB
     FM260900 03004KT P6SM OVC035=

USA.gov is the U.S. government's official web portal to all federal, state and local government web resources and services.